sensor_id;sensor_type;location;lat;lon;timestamp;pressure;altitude;pressure_sealevel;temperature
79714;BMP280;69206;51.420;5.400;2023-04-25T00:00:45;101096.84;;;7.24
79714;BMP280;69206;51.420;5.400;2023-04-25T00:03:11;101088.75;;;7.16
79714;BMP280;69206;51.420;5.400;2023-04-25T00:05:36;101099.19;;;7.16
79714;BMP280;69206;51.420;5.400;2023-04-25T00:08:03;101097.94;;;7.21
79714;BMP280;69206;51.420;5.400;2023-04-25T00:10:28;101107.44;;;7.22
79714;BMP280;69206;51.420;5.400;2023-04-25T00:12:53;101086.81;;;7.07
79714;BMP280;69206;51.420;5.400;2023-04-25T00:15:19;101108.78;;;7.28
79714;BMP280;69206;51.420;5.400;2023-04-25T00:17:44;101110.84;;;7.23
79714;BMP280;69206;51.420;5.400;2023-04-25T00:20:11;101117.72;;;7.24
79714;BMP280;69206;51.420;5.400;2023-04-25T00:22:37;101119.94;;;7.30
79714;BMP280;69206;51.420;5.400;2023-04-25T00:25:04;101111.09;;;7.20
79714;BMP280;69206;51.420;5.400;2023-04-25T00:27:30;101115.03;;;7.25
79714;BMP280;69206;51.420;5.400;2023-04-25T00:29:55;101111.72;;;7.11
79714;BMP280;69206;51.420;5.400;2023-04-25T00:32:21;101112.03;;;7.19
79714;BMP280;69206;51.420;5.400;2023-04-25T00:34:46;101113.91;;;7.17
79714;BMP280;69206;51.420;5.400;2023-04-25T00:37:13;101111.94;;;7.20
79714;BMP280;69206;51.420;5.400;2023-04-25T00:39:38;101113.34;;;7.24
79714;BMP280;69206;51.420;5.400;2023-04-25T00:42:04;101112.78;;;7.21
79714;BMP280;69206;51.420;5.400;2023-04-25T00:44:30;101112.03;;;7.19
79714;BMP280;69206;51.420;5.400;2023-04-25T00:46:57;101109.44;;;7.19
79714;BMP280;69206;51.420;5.400;2023-04-25T00:49:23;101106.50;;;7.11
79714;BMP280;69206;51.420;5.400;2023-04-25T00:51:48;101099.84;;;7.07
79714;BMP280;69206;51.420;5.400;2023-04-25T00:54:14;101112.16;;;7.05
79714;BMP280;69206;51.420;5.400;2023-04-25T00:56:41;101107.69;;;7.07
79714;BMP280;69206;51.420;5.400;2023-04-25T00:59:06;101098.16;;;7.06
79714;BMP280;69206;51.420;5.400;2023-04-25T01:01:32;101108.81;;;7.03
79714;BMP280;69206;51.420;5.400;2023-04-25T01:03:58;101111.13;;;6.95
79714;BMP280;69206;51.420;5.400;2023-04-25T01:06:24;101082.94;;;6.75
79714;BMP280;69206;51.420;5.400;2023-04-25T01:08:51;101101.63;;;6.94
79714;BMP280;69206;51.420;5.400;2023-04-25T01:11:16;101080.69;;;6.83
79714;BMP280;69206;51.420;5.400;2023-04-25T01:13:42;101104.34;;;6.92
79714;BMP280;69206;51.420;5.400;2023-04-25T01:16:07;101106.84;;;6.94
79714;BMP280;69206;51.420;5.400;2023-04-25T01:18:33;101102.94;;;7.12
79714;BMP280;69206;51.420;5.400;2023-04-25T01:21:09;101108.81;;;7.03
79714;BMP280;69206;51.420;5.400;2023-04-25T01:23:35;101109.84;;;6.88
79714;BMP280;69206;51.420;5.400;2023-04-25T01:26:01;101108.63;;;6.81
79714;BMP280;69206;51.420;5.400;2023-04-25T01:28:28;101087.25;;;6.76
79714;BMP280;69206;51.420;5.400;2023-04-25T01:30:53;101113.84;;;6.81
79714;BMP280;69206;51.420;5.400;2023-04-25T01:33:20;101114.88;;;6.91
79714;BMP280;69206;51.420;5.400;2023-04-25T01:35:46;101117.06;;;6.72
79714;BMP280;69206;51.420;5.400;2023-04-25T01:38:12;101122.38;;;6.58
79714;BMP280;69206;51.420;5.400;2023-04-25T01:40:38;101121.97;;;6.64
79714;BMP280;69206;51.420;5.400;2023-04-25T01:43:05;101111.75;;;6.61
79714;BMP280;69206;51.420;5.400;2023-04-25T01:45:30;101119.06;;;6.56
79714;BMP280;69206;51.420;5.400;2023-04-25T01:47:56;101112.69;;;6.47
79714;BMP280;69206;51.420;5.400;2023-04-25T01:50:25;101127.59;;;6.45
79714;BMP280;69206;51.420;5.400;2023-04-25T01:52:50;101126.31;;;6.51
79714;BMP280;69206;51.420;5.400;2023-04-25T01:55:16;101125.28;;;6.41
79714;BMP280;69206;51.420;5.400;2023-04-25T01:57:41;101115.06;;;6.38
79714;BMP280;69206;51.420;5.400;2023-04-25T02:00:07;101123.59;;;6.40
79714;BMP280;69206;51.420;5.400;2023-04-25T02:02:34;101119.84;;;6.31
79714;BMP280;69206;51.420;5.400;2023-04-25T02:05:00;101133.31;;;6.38
79714;BMP280;69206;51.420;5.400;2023-04-25T02:07:27;101132.97;;;6.30
79714;BMP280;69206;51.420;5.400;2023-04-25T02:09:52;101140.06;;;6.28
79714;BMP280;69206;51.420;5.400;2023-04-25T02:12:18;101140.19;;;6.39
79714;BMP280;69206;51.420;5.400;2023-04-25T02:14:43;101136.44;;;6.43
79714;BMP280;69206;51.420;5.400;2023-04-25T02:17:08;101134.41;;;6.48
79714;BMP280;69206;51.420;5.400;2023-04-25T02:19:34;101132.38;;;6.51
79714;BMP280;69206;51.420;5.400;2023-04-25T02:21:59;101137.59;;;6.51
79714;BMP280;69206;51.420;5.400;2023-04-25T02:24:25;101122.28;;;6.47
79714;BMP280;69206;51.420;5.400;2023-04-25T02:26:50;101142.81;;;6.64
79714;BMP280;69206;51.420;5.400;2023-04-25T02:29:16;101128.81;;;6.52
79714;BMP280;69206;51.420;5.400;2023-04-25T02:31:41;101140.97;;;6.66
79714;BMP280;69206;51.420;5.400;2023-04-25T02:34:07;101147.31;;;6.62
79714;BMP280;69206;51.420;5.400;2023-04-25T02:36:32;101138.97;;;6.57
79714;BMP280;69206;51.420;5.400;2023-04-25T02:39:00;101148.34;;;6.59
79714;BMP280;69206;51.420;5.400;2023-04-25T02:41:26;101149.50;;;6.68
79714;BMP280;69206;51.420;5.400;2023-04-25T02:43:51;101143.34;;;6.56
79714;BMP280;69206;51.420;5.400;2023-04-25T02:46:17;101152.53;;;6.62
79714;BMP280;69206;51.420;5.400;2023-04-25T02:48:42;101145.94;;;6.56
79714;BMP280;69206;51.420;5.400;2023-04-25T02:51:08;101145.84;;;6.58
79714;BMP280;69206;51.420;5.400;2023-04-25T02:53:33;101148.88;;;6.77
79714;BMP280;69206;51.420;5.400;2023-04-25T02:55:59;101153.66;;;6.58
79714;BMP280;69206;51.420;5.400;2023-04-25T02:58:25;101148.66;;;6.55
79714;BMP280;69206;51.420;5.400;2023-04-25T03:00:50;101140.41;;;6.48
79714;BMP280;69206;51.420;5.400;2023-04-25T03:03:15;101126.97;;;6.42
79714;BMP280;69206;51.420;5.400;2023-04-25T03:05:43;101143.03;;;6.48
79714;BMP280;69206;51.420;5.400;2023-04-25T03:08:09;101150.50;;;6.40
79714;BMP280;69206;51.420;5.400;2023-04-25T03:10:34;101139.91;;;6.43
79714;BMP280;69206;51.420;5.400;2023-04-25T03:13:01;101149.47;;;6.43
79714;BMP280;69206;51.420;5.400;2023-04-25T03:15:26;101148.75;;;6.41
79714;BMP280;69206;51.420;5.400;2023-04-25T03:17:52;101156.13;;;6.34
79714;BMP280;69206;51.420;5.400;2023-04-25T03:20:17;101154.47;;;6.33
79714;BMP280;69206;51.420;5.400;2023-04-25T03:22:43;101157.34;;;6.29
79714;BMP280;69206;51.420;5.400;2023-04-25T03:25:08;101164.59;;;6.38
79714;BMP280;69206;51.420;5.400;2023-04-25T03:27:33;101157.16;;;6.32
79714;BMP280;69206;51.420;5.400;2023-04-25T03:29:59;101162.69;;;6.40
79714;BMP280;69206;51.420;5.400;2023-04-25T03:32:24;101155.28;;;6.34
79714;BMP280;69206;51.420;5.400;2023-04-25T03:34:50;101157.47;;;6.40
79714;BMP280;69206;51.420;5.400;2023-04-25T03:37:15;101153.72;;;6.31
79714;BMP280;69206;51.420;5.400;2023-04-25T03:39:40;101156.13;;;6.34
79714;BMP280;69206;51.420;5.400;2023-04-25T03:42:06;101160.28;;;6.37
79714;BMP280;69206;51.420;5.400;2023-04-25T03:44:31;101156.22;;;6.33
79714;BMP280;69206;51.420;5.400;2023-04-25T03:46:56;101155.81;;;6.39
79714;BMP280;69206;51.420;5.400;2023-04-25T03:49:22;101160.09;;;6.40
79714;BMP280;69206;51.420;5.400;2023-04-25T03:51:47;101163.53;;;6.40
79714;BMP280;69206;51.420;5.400;2023-04-25T03:54:12;101158.03;;;6.45
79714;BMP280;69206;51.420;5.400;2023-04-25T03:56:38;101167.19;;;6.38
79714;BMP280;69206;51.420;5.400;2023-04-25T03:59:03;101150.47;;;6.28
79714;BMP280;69206;51.420;5.400;2023-04-25T04:01:29;101166.66;;;6.33
79714;BMP280;69206;51.420;5.400;2023-04-25T04:03:54;101171.69;;;6.36
79714;BMP280;69206;51.420;5.400;2023-04-25T04:06:20;101169.44;;;6.30
79714;BMP280;69206;51.420;5.400;2023-04-25T04:08:46;101177.63;;;6.38
79714;BMP280;69206;51.420;5.400;2023-04-25T04:11:11;101172.50;;;6.36
79714;BMP280;69206;51.420;5.400;2023-04-25T04:13:36;101178.66;;;6.35
79714;BMP280;69206;51.420;5.400;2023-04-25T04:16:02;101183.06;;;6.47
79714;BMP280;69206;51.420;5.400;2023-04-25T04:18:29;101179.97;;;6.67
79714;BMP280;69206;51.420;5.400;2023-04-25T04:20:54;101185.81;;;6.58
79714;BMP280;69206;51.420;5.400;2023-04-25T04:23:20;101153.09;;;6.28
79714;BMP280;69206;51.420;5.400;2023-04-25T04:25:46;101183.66;;;6.51
79714;BMP280;69206;51.420;5.400;2023-04-25T04:28:12;101161.31;;;6.22
79714;BMP280;69206;51.420;5.400;2023-04-25T04:30:38;101189.91;;;6.36
79714;BMP280;69206;51.420;5.400;2023-04-25T04:33:04;101193.16;;;6.39
79714;BMP280;69206;51.420;5.400;2023-04-25T04:35:30;101197.66;;;6.50
79714;BMP280;69206;51.420;5.400;2023-04-25T04:37:55;101128.88;;;6.26
79714;BMP280;69206;51.420;5.400;2023-04-25T04:40:21;101171.47;;;6.39
79714;BMP280;69206;51.420;5.400;2023-04-25T04:42:47;101199.31;;;6.51
79714;BMP280;69206;51.420;5.400;2023-04-25T04:45:12;101186.03;;;6.29
79714;BMP280;69206;51.420;5.400;2023-04-25T04:47:38;101169.25;;;6.33
79714;BMP280;69206;51.420;5.400;2023-04-25T04:50:06;101199.94;;;6.42
79714;BMP280;69206;51.420;5.400;2023-04-25T04:52:34;101188.84;;;6.38
79714;BMP280;69206;51.420;5.400;2023-04-25T04:54:59;101209.56;;;6.54
79714;BMP280;69206;51.420;5.400;2023-04-25T04:57:25;101195.78;;;6.52
79714;BMP280;69206;51.420;5.400;2023-04-25T04:59:50;101209.16;;;6.60
79714;BMP280;69206;51.420;5.400;2023-04-25T05:02:16;101179.41;;;6.50
79714;BMP280;69206;51.420;5.400;2023-04-25T05:04:42;101221.50;;;6.70
79714;BMP280;69206;51.420;5.400;2023-04-25T05:07:07;101229.44;;;6.69
79714;BMP280;69206;51.420;5.400;2023-04-25T05:09:32;101233.81;;;6.81
79714;BMP280;69206;51.420;5.400;2023-04-25T05:11:58;101235.97;;;6.62
79714;BMP280;69206;51.420;5.400;2023-04-25T05:14:23;101206.81;;;6.43
79714;BMP280;69206;51.420;5.400;2023-04-25T05:16:49;101229.59;;;6.53
79714;BMP280;69206;51.420;5.400;2023-04-25T05:19:14;101236.94;;;6.73
79714;BMP280;69206;51.420;5.400;2023-04-25T05:21:40;101231.41;;;6.78
79714;BMP280;69206;51.420;5.400;2023-04-25T05:24:05;101247.16;;;6.89
79714;BMP280;69206;51.420;5.400;2023-04-25T05:26:31;101225.13;;;6.68
79714;BMP280;69206;51.420;5.400;2023-04-25T05:28:57;101229.00;;;6.75
79714;BMP280;69206;51.420;5.400;2023-04-25T05:31:23;101248.03;;;7.02
79714;BMP280;69206;51.420;5.400;2023-04-25T05:33:48;101210.78;;;7.00
79714;BMP280;69206;51.420;5.400;2023-04-25T05:36:13;101253.06;;;7.05
79714;BMP280;69206;51.420;5.400;2023-04-25T05:38:39;101236.78;;;7.14
79714;BMP280;69206;51.420;5.400;2023-04-25T05:41:04;101239.91;;;7.19
79714;BMP280;69206;51.420;5.400;2023-04-25T05:43:29;101262.78;;;7.28
79714;BMP280;69206;51.420;5.400;2023-04-25T05:45:55;101229.97;;;7.24
79714;BMP280;69206;51.420;5.400;2023-04-25T05:48:20;101264.34;;;7.43
79714;BMP280;69206;51.420;5.400;2023-04-25T05:50:46;101266.22;;;7.41
79714;BMP280;69206;51.420;5.400;2023-04-25T05:53:11;101265.59;;;7.37
79714;BMP280;69206;51.420;5.400;2023-04-25T05:55:36;101268.13;;;7.39
79714;BMP280;69206;51.420;5.400;2023-04-25T05:58:02;101276.03;;;7.37
79714;BMP280;69206;51.420;5.400;2023-04-25T06:00:27;101252.44;;;7.26
79714;BMP280;69206;51.420;5.400;2023-04-25T06:02:52;101281.34;;;7.48
79714;BMP280;69206;51.420;5.400;2023-04-25T06:05:18;101285.97;;;7.57
79714;BMP280;69206;51.420;5.400;2023-04-25T06:07:43;101286.69;;;7.47
79714;BMP280;69206;51.420;5.400;2023-04-25T06:10:09;101287.53;;;7.60
79714;BMP280;69206;51.420;5.400;2023-04-25T06:12:35;101294.03;;;7.54
79714;BMP280;69206;51.420;5.400;2023-04-25T06:15:00;101286.47;;;7.50
79714;BMP280;69206;51.420;5.400;2023-04-25T06:17:26;101286.91;;;7.56
79714;BMP280;69206;51.420;5.400;2023-04-25T06:19:51;101295.06;;;7.64
79714;BMP280;69206;51.420;5.400;2023-04-25T06:22:17;101296.19;;;7.73
79714;BMP280;69206;51.420;5.400;2023-04-25T06:24:42;101297.53;;;7.78
79714;BMP280;69206;51.420;5.400;2023-04-25T06:27:07;101285.94;;;7.82
79714;BMP280;69206;51.420;5.400;2023-04-25T06:29:33;101294.88;;;8.03
79714;BMP280;69206;51.420;5.400;2023-04-25T06:31:58;101306.06;;;7.93
79714;BMP280;69206;51.420;5.400;2023-04-25T06:34:24;101302.31;;;7.97
79714;BMP280;69206;51.420;5.400;2023-04-25T06:36:49;101303.09;;;8.10
79714;BMP280;69206;51.420;5.400;2023-04-25T06:39:15;101304.84;;;8.22
79714;BMP280;69206;51.420;5.400;2023-04-25T06:41:40;101318.31;;;8.28
79714;BMP280;69206;51.420;5.400;2023-04-25T06:44:06;101314.72;;;8.42
79714;BMP280;69206;51.420;5.400;2023-04-25T06:46:31;101285.84;;;8.31
79714;BMP280;69206;51.420;5.400;2023-04-25T06:48:56;101322.44;;;8.67
79714;BMP280;69206;51.420;5.400;2023-04-25T06:51:22;101286.28;;;8.72
79714;BMP280;69206;51.420;5.400;2023-04-25T06:53:49;101301.88;;;8.97
79714;BMP280;69206;51.420;5.400;2023-04-25T06:56:14;101329.63;;;9.10
79714;BMP280;69206;51.420;5.400;2023-04-25T06:58:41;101316.84;;;9.51
79714;BMP280;69206;51.420;5.400;2023-04-25T07:01:06;101312.91;;;9.57
79714;BMP280;69206;51.420;5.400;2023-04-25T07:03:31;101320.72;;;9.90
79714;BMP280;69206;51.420;5.400;2023-04-25T07:05:57;101302.38;;;10.12
79714;BMP280;69206;51.420;5.400;2023-04-25T07:08:22;101323.66;;;10.81
79714;BMP280;69206;51.420;5.400;2023-04-25T07:10:48;101309.09;;;10.68
79714;BMP280;69206;51.420;5.400;2023-04-25T07:13:13;101316.00;;;10.89
79714;BMP280;69206;51.420;5.400;2023-04-25T07:15:38;101316.59;;;11.22
79714;BMP280;69206;51.420;5.400;2023-04-25T07:18:04;101324.41;;;11.33
79714;BMP280;69206;51.420;5.400;2023-04-25T07:20:30;101330.75;;;11.21
79714;BMP280;69206;51.420;5.400;2023-04-25T07:22:56;101329.91;;;11.21
79714;BMP280;69206;51.420;5.400;2023-04-25T07:25:22;101335.31;;;10.99
79714;BMP280;69206;51.420;5.400;2023-04-25T07:27:47;101337.94;;;10.99
79714;BMP280;69206;51.420;5.400;2023-04-25T07:30:13;101341.94;;;11.53
79714;BMP280;69206;51.420;5.400;2023-04-25T07:32:39;101315.56;;;11.64
79714;BMP280;69206;51.420;5.400;2023-04-25T07:35:05;101333.56;;;12.27
79714;BMP280;69206;51.420;5.400;2023-04-25T07:37:32;101325.72;;;11.88
79714;BMP280;69206;51.420;5.400;2023-04-25T07:39:57;101330.22;;;12.06
79714;BMP280;69206;51.420;5.400;2023-04-25T07:42:23;101338.69;;;12.19
79714;BMP280;69206;51.420;5.400;2023-04-25T07:44:48;101337.81;;;11.51
79714;BMP280;69206;51.420;5.400;2023-04-25T07:47:13;101340.59;;;11.68
79714;BMP280;69206;51.420;5.400;2023-04-25T07:49:39;101346.84;;;12.07
79714;BMP280;69206;51.420;5.400;2023-04-25T07:52:05;101343.22;;;12.17
79714;BMP280;69206;51.420;5.400;2023-04-25T07:54:31;101343.66;;;12.51
79714;BMP280;69206;51.420;5.400;2023-04-25T07:56:58;101346.84;;;12.64
79714;BMP280;69206;51.420;5.400;2023-04-25T07:59:23;101325.44;;;11.72
79714;BMP280;69206;51.420;5.400;2023-04-25T08:01:49;101362.59;;;11.97
79714;BMP280;69206;51.420;5.400;2023-04-25T08:04:15;101366.91;;;12.17
79714;BMP280;69206;51.420;5.400;2023-04-25T08:06:40;101371.94;;;12.68
79714;BMP280;69206;51.420;5.400;2023-04-25T08:09:06;101370.00;;;12.89
79714;BMP280;69206;51.420;5.400;2023-04-25T08:11:32;101362.63;;;13.75
79714;BMP280;69206;51.420;5.400;2023-04-25T08:13:57;101371.25;;;12.37
79714;BMP280;69206;51.420;5.400;2023-04-25T08:16:22;101383.75;;;12.54
79714;BMP280;69206;51.420;5.400;2023-04-25T08:18:48;101342.69;;;12.14
79714;BMP280;69206;51.420;5.400;2023-04-25T08:21:13;101391.94;;;11.93
79714;BMP280;69206;51.420;5.400;2023-04-25T08:23:40;101388.19;;;11.95
79714;BMP280;69206;51.420;5.400;2023-04-25T08:26:05;101394.59;;;11.22
79714;BMP280;69206;51.420;5.400;2023-04-25T08:28:31;101406.84;;;10.92
79714;BMP280;69206;51.420;5.400;2023-04-25T08:30:57;101405.53;;;10.86
79714;BMP280;69206;51.420;5.400;2023-04-25T08:33:22;101409.56;;;10.59
79714;BMP280;69206;51.420;5.400;2023-04-25T08:35:47;101422.63;;;9.94
79714;BMP280;69206;51.420;5.400;2023-04-25T08:38:13;101415.22;;;9.77
79714;BMP280;69206;51.420;5.400;2023-04-25T08:40:39;101434.19;;;9.70
79714;BMP280;69206;51.420;5.400;2023-04-25T08:43:07;101429.63;;;9.72
79714;BMP280;69206;51.420;5.400;2023-04-25T08:45:40;101435.09;;;9.80
79714;BMP280;69206;51.420;5.400;2023-04-25T08:48:14;101417.81;;;9.55
79714;BMP280;69206;51.420;5.400;2023-04-25T08:50:52;101446.31;;;9.71
79714;BMP280;69206;51.420;5.400;2023-04-25T08:53:38;101458.19;;;10.09
79714;BMP280;69206;51.420;5.400;2023-04-25T08:56:05;101420.34;;;9.90
79714;BMP280;69206;51.420;5.400;2023-04-25T08:58:32;101441.66;;;10.40
79714;BMP280;69206;51.420;5.400;2023-04-25T09:00:58;101452.50;;;10.69
79714;BMP280;69206;51.420;5.400;2023-04-25T09:03:25;101457.44;;;10.82
79714;BMP280;69206;51.420;5.400;2023-04-25T09:05:51;101466.19;;;11.14
79714;BMP280;69206;51.420;5.400;2023-04-25T09:08:16;101459.41;;;11.32
79714;BMP280;69206;51.420;5.400;2023-04-25T09:10:42;101463.19;;;11.80
79714;BMP280;69206;51.420;5.400;2023-04-25T09:13:12;101467.78;;;12.27
79714;BMP280;69206;51.420;5.400;2023-04-25T09:15:51;101431.69;;;12.77
79714;BMP280;69206;51.420;5.400;2023-04-25T09:18:30;101466.81;;;13.61
79714;BMP280;69206;51.420;5.400;2023-04-25T09:23:39;101467.25;;;14.47
79714;BMP280;69206;51.420;5.400;2023-04-25T09:26:06;101429.88;;;15.45
79714;BMP280;69206;51.420;5.400;2023-04-25T09:28:32;101464.56;;;15.17
79714;BMP280;69206;51.420;5.400;2023-04-25T09:30:57;101457.56;;;15.59
79714;BMP280;69206;51.420;5.400;2023-04-25T09:33:28;101469.81;;;15.34
79714;BMP280;69206;51.420;5.400;2023-04-25T09:36:02;101455.38;;;15.88
79714;BMP280;69206;51.420;5.400;2023-04-25T09:38:30;101451.25;;;16.75
79714;BMP280;69206;51.420;5.400;2023-04-25T09:40:55;101457.69;;;16.64
79714;BMP280;69206;51.420;5.400;2023-04-25T09:43:25;101471.59;;;15.26
79714;BMP280;69206;51.420;5.400;2023-04-25T09:45:52;101467.34;;;14.73
79714;BMP280;69206;51.420;5.400;2023-04-25T09:48:19;101466.03;;;14.94
79714;BMP280;69206;51.420;5.400;2023-04-25T09:53:28;101488.56;;;13.82
79714;BMP280;69206;51.420;5.400;2023-04-25T09:55:54;101490.09;;;14.39
79714;BMP280;69206;51.420;5.400;2023-04-25T09:58:20;101479.16;;;14.69
79714;BMP280;69206;51.420;5.400;2023-04-25T10:00:46;101480.84;;;14.87
79714;BMP280;69206;51.420;5.400;2023-04-25T10:03:13;101460.09;;;16.10
79714;BMP280;69206;51.420;5.400;2023-04-25T10:05:40;101429.25;;;17.44
79714;BMP280;69206;51.420;5.400;2023-04-25T10:08:06;101455.34;;;17.17
79714;BMP280;69206;51.420;5.400;2023-04-25T10:10:32;101444.22;;;18.51
79714;BMP280;69206;51.420;5.400;2023-04-25T10:13:03;101428.38;;;19.88
79714;BMP280;69206;51.420;5.400;2023-04-25T10:15:29;101443.88;;;19.99
79714;BMP280;69206;51.420;5.400;2023-04-25T10:17:56;101436.41;;;19.73
79714;BMP280;69206;51.420;5.400;2023-04-25T10:20:22;101400.28;;;17.96
79714;BMP280;69206;51.420;5.400;2023-04-25T10:22:47;101431.56;;;18.39
79714;BMP280;69206;51.420;5.400;2023-04-25T10:25:14;101432.09;;;18.86
79714;BMP280;69206;51.420;5.400;2023-04-25T10:27:40;101418.03;;;18.26
79714;BMP280;69206;51.420;5.400;2023-04-25T10:30:11;101466.31;;;17.68
79714;BMP280;69206;51.420;5.400;2023-04-25T10:32:39;101470.06;;;16.24
79714;BMP280;69206;51.420;5.400;2023-04-25T10:35:18;101466.63;;;17.19
79714;BMP280;69206;51.420;5.400;2023-04-25T10:40:28;101480.69;;;16.32
79714;BMP280;69206;51.420;5.400;2023-04-25T10:42:54;101489.31;;;15.59
79714;BMP280;69206;51.420;5.400;2023-04-25T10:45:21;101486.16;;;15.30
79714;BMP280;69206;51.420;5.400;2023-04-25T10:47:46;101466.78;;;15.04
79714;BMP280;69206;51.420;5.400;2023-04-25T10:50:14;101492.03;;;13.73
79714;BMP280;69206;51.420;5.400;2023-04-25T10:52:40;101503.41;;;13.28
79714;BMP280;69206;51.420;5.400;2023-04-25T10:55:06;101507.28;;;13.24
79714;BMP280;69206;51.420;5.400;2023-04-25T10:57:42;101470.34;;;12.48
79714;BMP280;69206;51.420;5.400;2023-04-25T11:00:13;101503.50;;;12.69
79714;BMP280;69206;51.420;5.400;2023-04-25T11:02:57;101502.59;;;12.40
79714;BMP280;69206;51.420;5.400;2023-04-25T11:05:33;101518.56;;;12.58
79714;BMP280;69206;51.420;5.400;2023-04-25T11:07:59;101484.78;;;12.72
79714;BMP280;69206;51.420;5.400;2023-04-25T11:10:31;101494.63;;;13.92
79714;BMP280;69206;51.420;5.400;2023-04-25T11:12:58;101505.13;;;14.73
79714;BMP280;69206;51.420;5.400;2023-04-25T11:15:24;101495.00;;;15.21
79714;BMP280;69206;51.420;5.400;2023-04-25T11:17:54;101507.31;;;15.30
79714;BMP280;69206;51.420;5.400;2023-04-25T11:20:20;101484.47;;;16.29
79714;BMP280;69206;51.420;5.400;2023-04-25T11:22:46;101489.47;;;15.91
79714;BMP280;69206;51.420;5.400;2023-04-25T11:25:14;101473.97;;;14.94
79714;BMP280;69206;51.420;5.400;2023-04-25T11:28:09;101497.44;;;14.97
79714;BMP280;69206;51.420;5.400;2023-04-25T11:30:34;101488.38;;;13.47
79714;BMP280;69206;51.420;5.400;2023-04-25T11:32:59;101523.22;;;13.13
79714;BMP280;69206;51.420;5.400;2023-04-25T11:35:25;101513.25;;;13.07
79714;BMP280;69206;51.420;5.400;2023-04-25T11:37:51;101535.69;;;12.82
79714;BMP280;69206;51.420;5.400;2023-04-25T11:40:16;101558.03;;;12.48
79714;BMP280;69206;51.420;5.400;2023-04-25T11:42:46;101563.50;;;12.26
79714;BMP280;69206;51.420;5.400;2023-04-25T11:45:12;101567.63;;;12.19
79714;BMP280;69206;51.420;5.400;2023-04-25T11:47:37;101554.63;;;12.27
79714;BMP280;69206;51.420;5.400;2023-04-25T11:50:04;101559.19;;;14.07
79714;BMP280;69206;51.420;5.400;2023-04-25T11:52:45;101539.50;;;15.08
79714;BMP280;69206;51.420;5.400;2023-04-25T11:55:17;101501.88;;;16.32
79714;BMP280;69206;51.420;5.400;2023-04-25T11:57:48;101516.22;;;17.03
79714;BMP280;69206;51.420;5.400;2023-04-25T12:00:17;101521.13;;;16.42
79714;BMP280;69206;51.420;5.400;2023-04-25T12:02:47;101533.34;;;15.93
79714;BMP280;69206;51.420;5.400;2023-04-25T12:05:14;101537.78;;;17.16
79714;BMP280;69206;51.420;5.400;2023-04-25T12:07:40;101524.50;;;16.18
79714;BMP280;69206;51.420;5.400;2023-04-25T12:12:33;101553.41;;;14.75
79714;BMP280;69206;51.420;5.400;2023-04-25T12:15:08;101559.91;;;14.27
79714;BMP280;69206;51.420;5.400;2023-04-25T12:17:35;101568.72;;;13.62
79714;BMP280;69206;51.420;5.400;2023-04-25T12:20:06;101573.19;;;13.62
79714;BMP280;69206;51.420;5.400;2023-04-25T12:22:32;101568.75;;;13.34
79714;BMP280;69206;51.420;5.400;2023-04-25T12:24:58;101572.44;;;12.93
79714;BMP280;69206;51.420;5.400;2023-04-25T12:27:25;101575.66;;;13.16
79714;BMP280;69206;51.420;5.400;2023-04-25T12:29:53;101557.38;;;13.33
79714;BMP280;69206;51.420;5.400;2023-04-25T12:32:19;101577.06;;;13.58
79714;BMP280;69206;51.420;5.400;2023-04-25T12:34:45;101567.75;;;14.46
79714;BMP280;69206;51.420;5.400;2023-04-25T12:37:10;101563.00;;;15.11
79714;BMP280;69206;51.420;5.400;2023-04-25T12:39:36;101545.28;;;15.29
79714;BMP280;69206;51.420;5.400;2023-04-25T12:42:01;101539.88;;;16.72
79714;BMP280;69206;51.420;5.400;2023-04-25T12:44:28;101547.84;;;16.80
79714;BMP280;69206;51.420;5.400;2023-04-25T12:46:53;101543.13;;;16.01
79714;BMP280;69206;51.420;5.400;2023-04-25T12:49:19;101553.06;;;14.61
79714;BMP280;69206;51.420;5.400;2023-04-25T12:51:45;101535.94;;;13.74
79714;BMP280;69206;51.420;5.400;2023-04-25T12:54:12;101580.06;;;13.72
79714;BMP280;69206;51.420;5.400;2023-04-25T12:56:38;101586.75;;;13.00
79714;BMP280;69206;51.420;5.400;2023-04-25T12:59:03;101573.28;;;13.03
79714;BMP280;69206;51.420;5.400;2023-04-25T13:01:29;101578.91;;;12.70
79714;BMP280;69206;51.420;5.400;2023-04-25T13:03:54;101577.34;;;12.28
79714;BMP280;69206;51.420;5.400;2023-04-25T13:06:21;101595.88;;;12.57
79714;BMP280;69206;51.420;5.400;2023-04-25T13:08:47;101558.22;;;12.26
79714;BMP280;69206;51.420;5.400;2023-04-25T13:11:13;101575.47;;;12.40
79714;BMP280;69206;51.420;5.400;2023-04-25T13:13:40;101595.41;;;12.12
79714;BMP280;69206;51.420;5.400;2023-04-25T13:16:05;101586.22;;;12.27
79714;BMP280;69206;51.420;5.400;2023-04-25T13:18:32;101595.84;;;12.17
79714;BMP280;69206;51.420;5.400;2023-04-25T13:20:58;101594.97;;;12.07
79714;BMP280;69206;51.420;5.400;2023-04-25T13:23:25;101604.41;;;12.10
79714;BMP280;69206;51.420;5.400;2023-04-25T13:25:52;101599.19;;;11.99
79714;BMP280;69206;51.420;5.400;2023-04-25T13:28:17;101597.16;;;11.82
79714;BMP280;69206;51.420;5.400;2023-04-25T13:30:43;101596.13;;;12.44
79714;BMP280;69206;51.420;5.400;2023-04-25T13:33:08;101591.19;;;13.28
79714;BMP280;69206;51.420;5.400;2023-04-25T13:35:36;101609.81;;;13.74
79714;BMP280;69206;51.420;5.400;2023-04-25T13:38:02;101590.94;;;15.13
79714;BMP280;69206;51.420;5.400;2023-04-25T13:40:27;101571.81;;;15.80
79714;BMP280;69206;51.420;5.400;2023-04-25T13:42:55;101568.59;;;15.68
79714;BMP280;69206;51.420;5.400;2023-04-25T13:45:22;101575.19;;;14.77
79714;BMP280;69206;51.420;5.400;2023-04-25T13:47:47;101592.53;;;13.99
79714;BMP280;69206;51.420;5.400;2023-04-25T13:50:13;101593.41;;;13.42
79714;BMP280;69206;51.420;5.400;2023-04-25T13:52:40;101577.47;;;13.15
79714;BMP280;69206;51.420;5.400;2023-04-25T13:55:06;101601.59;;;13.01
79714;BMP280;69206;51.420;5.400;2023-04-25T13:57:35;101592.06;;;13.38
79714;BMP280;69206;51.420;5.400;2023-04-25T14:00:03;101574.56;;;12.60
79714;BMP280;69206;51.420;5.400;2023-04-25T14:02:34;101602.25;;;12.84
79714;BMP280;69206;51.420;5.400;2023-04-25T14:05:00;101611.16;;;13.02
79714;BMP280;69206;51.420;5.400;2023-04-25T14:07:27;101598.34;;;14.02
79714;BMP280;69206;51.420;5.400;2023-04-25T14:09:52;101551.31;;;15.39